Dades meteomassalio
Diari Summary for Abril 5, 2017 Units:  English    Metric   Both
« Previous Day
Next Day »
Diari Semanal Mensual Anual Personalitzat
  Maxima: Minima: Mijana:
Temperatura: TemperatureC °F 9.1 °F 12.2 °F
Rosada: DewpointC °F 3.7 °F 6 °F
Humitat: Humidity % 48 % 66 %
Velocitat del vent: WindSpeedKMH mph 0.0 mph 17 mph
Racha vent: WindSpeedGustKMH mph - -
Vent:- - WNW
Pressio: PressurehPa in 1018.8 in -
Pluja: 0.0 in    
Historical Graphs
 
 
Tabular Data for Abril 5, 2017
Time Temperature Dew Point Pressure Wind Wind Speed Wind Gust Humidity Rainfall Rate (Hourly) solar Conditions
TemperatureC °F DewpointC °F PressurehPa in Calm     Humidity % HourlyPrecipMM in SolarRadiationWatts/m^2 W/m2 Conditions
00:04 12.2 °F 4.9 °F 1023.2 in West 18.5 mph 18.5 mph 61 % 0.0 in 0.0 W/m2 CLR
00:09 12.1 °F 5.1 °F 1023.2 in WSW 20.4 mph 20.4 mph 62 % 0.0 in 0.0 W/m2 CLR
00:14 12.0 °F 4.9 °F 1023.2 in West 11.1 mph 11.1 mph 62 % 0.0 in 0.0 W/m2 CLR
00:19 11.9 °F 4.8 °F 1023.2 in Calm     62 % 0.0 in 0.0 W/m2 CLR
00:24 11.6 °F 4.8 °F 1023.2 in West 4.8 mph 4.8 mph 63 % 0.0 in 0.0 W/m2 CLR
00:29 11.4 °F 4.8 °F 1022.9 in WSW 5.6 mph 5.6 mph 64 % 0.0 in 0.0 W/m2 CLR
00:34 11.1 °F 4.8 °F 1022.9 in WSW 9.3 mph 9.3 mph 65 % 0.0 in 0.0 W/m2 CLR
00:39 11.1 °F 4.8 °F 1022.9 in WSW 13.0 mph 13.0 mph 65 % 0.0 in 0.0 W/m2 CLR
00:44 11.1 °F 4.7 °F 1022.9 in WSW 5.6 mph 5.6 mph 65 % 0.0 in 0.0 W/m2 CLR
00:49 10.9 °F 4.6 °F 1022.9 in WSW 5.6 mph 5.6 mph 65 % 0.0 in 0.0 W/m2 CLR
00:54 11.0 °F 4.7 °F 1022.9 in WSW 16.7 mph 16.7 mph 65 % 0.0 in 0.0 W/m2 CLR
00:59 11.1 °F 4.7 °F 1022.9 in WSW 18.5 mph 18.5 mph 65 % 0.0 in 0.0 W/m2 CLR
01:04 11.3 °F 4.8 °F 1022.9 in West 13.0 mph 13.0 mph 64 % 0.0 in 0.0 W/m2 CLR
01:09 11.3 °F 4.5 °F 1022.9 in Calm   0.2 mph 63 % 0.0 in 0.0 W/m2 CLR
01:14 11.1 °F 4.6 °F 1022.9 in West 12.9 mph 12.9 mph 64 % 0.0 in 0.0 W/m2 CLR
01:19 11.0 °F 4.4 °F 1022.9 in WSW 14.5 mph 14.5 mph 64 % 0.0 in 0.0 W/m2 CLR
01:24 10.9 °F 4.2 °F 1022.9 in WSW 13.0 mph 13.0 mph 63 % 0.0 in 0.0 W/m2 CLR
01:29 10.9 °F 4.2 °F 1022.9 in West 13.0 mph 13.0 mph 63 % 0.0 in 0.0 W/m2 CLR
01:34 10.9 °F 4.1 °F 1022.9 in West 6.4 mph 6.4 mph 63 % 0.0 in 0.0 W/m2 CLR
01:39 10.8 °F 4.0 °F 1022.6 in SW 11.1 mph 11.1 mph 63 % 0.0 in 0.0 W/m2 CLR
01:44 10.7 °F 4.1 °F 1022.9 in WSW 14.8 mph 14.8 mph 64 % 0.0 in 0.0 W/m2 CLR
01:49 10.6 °F 4.0 °F 1022.6 in SW 5.6 mph 5.6 mph 64 % 0.0 in 0.0 W/m2 CLR
01:54 10.4 °F 3.9 °F 1022.6 in SW 3.7 mph 3.7 mph 64 % 0.0 in 0.0 W/m2 CLR
01:59 10.3 °F 4.0 °F 1022.6 in WSW 5.6 mph 5.6 mph 65 % 0.0 in 0.0 W/m2 CLR
02:04 10.2 °F 3.9 °F 1022.6 in WSW 5.6 mph 6.0 mph 65 % 0.0 in 0.0 W/m2 CLR
02:09 10.2 °F 3.9 °F 1022.6 in WSW 14.5 mph 14.5 mph 65 % 0.0 in 0.0 W/m2 CLR
02:14 10.2 °F 3.7 °F 1022.6 in WSW 9.3 mph 9.3 mph 64 % 0.0 in 0.0 W/m2 CLR
02:19 10.2 °F 3.7 °F 1022.2 in WSW 11.1 mph 11.1 mph 64 % 0.0 in 0.0 W/m2 CLR
02:24 10.2 °F 3.7 °F 1022.2 in West 3.7 mph 3.7 mph 64 % 0.0 in 0.0 W/m2 CLR
02:29 10.2 °F 3.7 °F 1022.2 in WSW 1.9 mph 1.9 mph 64 % 0.0 in 0.0 W/m2 CLR
02:34 10.2 °F 3.7 °F 1022.2 in WSW 7.4 mph 7.4 mph 64 % 0.0 in 0.0 W/m2 CLR
02:39 10.2 °F 3.7 °F 1022.2 in WSW 5.6 mph 5.6 mph 64 % 0.0 in 0.0 W/m2 CLR
02:44 10.2 °F 3.7 °F 1021.9 in WSW 5.6 mph 5.6 mph 64 % 0.0 in 0.0 W/m2 CLR
02:49 10.1 °F 3.8 °F 1021.9 in WSW 16.1 mph 16.1 mph 65 % 0.0 in 0.0 W/m2 CLR
02:54 10.1 °F 3.8 °F 1021.9 in WSW 9.3 mph 10.1 mph 65 % 0.0 in 0.0 W/m2 CLR
02:59 10.2 °F 3.9 °F 1021.9 in WSW 14.8 mph 14.8 mph 65 % 0.0 in 0.0 W/m2 CLR
03:04 10.3 °F 3.8 °F 1021.9 in West 16.1 mph 16.1 mph 64 % 0.0 in 0.0 W/m2 CLR
03:09 10.4 °F 3.9 °F 1021.9 in SW 14.8 mph 14.8 mph 64 % 0.0 in 0.0 W/m2 CLR
03:15 10.4 °F 3.7 °F 1021.9 in WSW 18.5 mph 18.5 mph 63 % 0.0 in 0.0 W/m2 CLR
03:20 10.5 °F 3.7 °F 1021.9 in West 14.5 mph 14.5 mph 63 % 0.0 in 0.0 W/m2 CLR
03:25 10.5 °F 3.7 °F 1021.6 in West 22.5 mph 22.5 mph 63 % 0.0 in 0.0 W/m2 CLR
03:30 10.5 °F 3.7 °F 1021.6 in West 16.7 mph 16.7 mph 63 % 0.0 in 0.0 W/m2 CLR
03:35 10.5 °F 3.7 °F 1021.6 in West 13.0 mph 13.0 mph 63 % 0.0 in 0.0 W/m2 CLR
03:40 10.4 °F 3.7 °F 1021.6 in SW 18.5 mph 18.5 mph 63 % 0.0 in 0.0 W/m2 CLR
03:45 10.4 °F 3.9 °F 1021.6 in WSW 16.7 mph 16.7 mph 64 % 0.0 in 0.0 W/m2 CLR
03:50 10.3 °F 3.8 °F 1021.6 in WSW 9.7 mph 9.7 mph 64 % 0.0 in 0.0 W/m2 CLR
03:55 10.3 °F 3.8 °F 1021.6 in WSW 7.4 mph 7.4 mph 64 % 0.0 in 0.0 W/m2 CLR
04:00 10.2 °F 3.7 °F 1021.6 in WSW 18.5 mph 18.5 mph 64 % 0.0 in 0.0 W/m2 CLR
04:05 10.2 °F 3.7 °F 1021.6 in West 9.7 mph 9.7 mph 64 % 0.0 in 0.0 W/m2 CLR
04:10 10.1 °F 3.8 °F 1021.6 in West 5.6 mph 5.6 mph 65 % 0.0 in 0.0 W/m2 CLR
04:15 10.0 °F 3.9 °F 1021.6 in WSW 16.7 mph 16.7 mph 66 % 0.0 in 0.0 W/m2 CLR
04:20 10.0 °F 3.9 °F 1021.2 in West 18.5 mph 18.5 mph 66 % 0.0 in 0.0 W/m2 CLR
04:25 10.2 °F 4.1 °F 1021.2 in SSW 18.5 mph 18.5 mph 66 % 0.0 in 0.0 W/m2 CLR
04:30 10.1 °F 4.0 °F 1021.2 in West 9.7 mph 11.3 mph 66 % 0.0 in 0.0 W/m2 CLR
04:35 10.0 °F 3.9 °F 1021.2 in SW 5.6 mph 5.6 mph 66 % 0.0 in 0.0 W/m2 CLR
04:40 9.8 °F 4.0 °F 1021.2 in WSW 3.7 mph 3.7 mph 67 % 0.0 in 0.0 W/m2 CLR
04:45 9.8 °F 4.2 °F 1021.2 in WSW 14.5 mph 14.5 mph 68 % 0.0 in 0.0 W/m2 CLR
04:50 9.8 °F 4.2 °F 1021.2 in SW 3.7 mph 3.7 mph 68 % 0.0 in 0.0 W/m2 CLR
04:55 9.7 °F 4.1 °F 1021.2 in WSW 5.6 mph 5.6 mph 68 % 0.0 in 0.0 W/m2 CLR
05:00 9.5 °F 4.1 °F 1021.2 in SW 11.3 mph 11.3 mph 69 % 0.0 in 0.0 W/m2 CLR
05:05 9.6 °F 4.6 °F 1020.9 in WSW 11.1 mph 11.1 mph 71 % 0.0 in 0.0 W/m2 CLR
05:10 9.7 °F 4.7 °F 1020.9 in WSW 18.5 mph 18.5 mph 71 % 0.0 in 0.0 W/m2 CLR
05:15 9.9 °F 4.9 °F 1020.9 in West 18.5 mph 18.5 mph 71 % 0.0 in 0.0 W/m2 CLR
05:20 10.1 °F 5.1 °F 1020.9 in West 22.2 mph 22.2 mph 71 % 0.0 in 0.0 W/m2 CLR
05:25 10.2 °F 5.2 °F 1020.9 in WNW 20.4 mph 20.4 mph 71 % 0.0 in 0.0 W/m2 CLR
05:30 10.3 °F 5.4 °F 1020.9 in WNW 18.5 mph 18.5 mph 72 % 0.0 in 0.0 W/m2 CLR
05:35 10.3 °F 5.4 °F 1020.9 in West 18.5 mph 18.5 mph 72 % 0.0 in 0.0 W/m2 CLR
05:40 10.3 °F 5.5 °F 1020.9 in WSW 18.5 mph 18.5 mph 72 % 0.0 in 0.0 W/m2 CLR
05:45 10.4 °F 5.6 °F 1020.9 in West 22.2 mph 22.2 mph 72 % 0.0 in 0.0 W/m2 CLR
05:50 10.3 °F 5.7 °F 1020.5 in WNW 18.5 mph 18.5 mph 73 % 0.0 in 0.0 W/m2 CLR
05:55 10.3 °F 5.7 °F 1020.9 in WNW 24.1 mph 24.1 mph 73 % 0.0 in 0.0 W/m2 CLR
06:00 10.3 °F 5.7 °F 1020.9 in West 18.5 mph 18.5 mph 73 % 0.0 in 0.0 W/m2 CLR
06:05 10.3 °F 5.7 °F 1020.9 in West 16.7 mph 16.7 mph 73 % 0.0 in 0.0 W/m2 CLR
06:10 10.3 °F 5.7 °F 1020.9 in WNW 17.7 mph 17.7 mph 73 % 0.0 in 0.0 W/m2 CLR
06:15 10.2 °F 5.8 °F 1020.9 in NNW 22.2 mph 22.2 mph 74 % 0.0 in 0.0 W/m2 CLR
06:20 10.2 °F 5.7 °F 1020.5 in NW 18.5 mph 18.5 mph 74 % 0.0 in 0.0 W/m2 CLR
06:25 10.1 °F 5.7 °F 1020.9 in West 18.5 mph 18.5 mph 74 % 0.0 in 0.0 W/m2 CLR
06:30 10.1 °F 5.9 °F 1020.9 in West 20.4 mph 20.4 mph 75 % 0.0 in 0.0 W/m2 CLR
06:35 10.0 °F 5.8 °F 1020.9 in NW 33.3 mph 33.3 mph 75 % 0.0 in 0.0 W/m2 CLR
06:40 10.0 °F 5.8 °F 1020.9 in WNW 29.6 mph 29.6 mph 75 % 0.0 in 0.0 W/m2 CLR
06:45 9.8 °F 5.8 °F 1020.9 in NW 22.5 mph 22.5 mph 76 % 0.0 in 0.0 W/m2 CLR
06:50 9.7 °F 5.7 °F 1020.9 in NW 27.8 mph 27.8 mph 76 % 0.0 in 0.0 W/m2 CLR
06:55 9.7 °F 5.7 °F 1020.9 in WNW 24.1 mph 24.1 mph 76 % 0.0 in 0.0 W/m2 CLR
07:00 9.6 °F 5.8 °F 1020.9 in WNW 20.4 mph 20.4 mph 77 % 0.0 in 0.0 W/m2 CLR
07:05 9.5 °F 5.7 °F 1020.9 in WNW 19.3 mph 19.3 mph 77 % 0.0 in 0.0 W/m2 CLR
07:10 9.5 °F 5.7 °F 1021.2 in WNW 20.4 mph 20.4 mph 77 % 0.0 in 0.0 W/m2 CLR
07:15 9.5 °F 5.7 °F 1021.2 in WNW 22.2 mph 22.2 mph 77 % 0.0 in 0.0 W/m2 CLR
07:20 9.5 °F 5.7 °F 1021.2 in WNW 25.9 mph 25.9 mph 77 % 0.0 in 0.0 W/m2 CLR
07:25 9.4 °F 5.6 °F 1021.2 in WNW 27.8 mph 27.8 mph 77 % 0.0 in 0.0 W/m2 CLR
07:30 9.4 °F 5.6 °F 1021.6 in NW 25.7 mph 25.7 mph 77 % 0.0 in 0.0 W/m2 OVC
07:35 9.4 °F 5.6 °F 1021.6 in NW 25.9 mph 25.9 mph 77 % 0.0 in 0.0 W/m2 OVC
07:40 9.3 °F 5.5 °F 1021.6 in WNW 24.1 mph 24.1 mph 77 % 0.0 in 0.0 W/m2 OVC
07:45 9.3 °F 5.4 °F 1021.6 in WNW 20.9 mph 20.9 mph 77 % 0.0 in 5.0 W/m2 OVC
07:50 9.3 °F 5.4 °F 1021.6 in West 22.2 mph 22.2 mph 77 % 0.0 in 9.0 W/m2 BKN
07:55 9.3 °F 5.4 °F 1021.9 in WNW 22.2 mph 22.2 mph 77 % 0.0 in 11.0 W/m2 BKN
08:00 9.2 °F 5.3 °F 1021.9 in WNW 22.2 mph 22.2 mph 77 % 0.0 in 12.0 W/m2 BKN
08:05 9.1 °F 5.3 °F 1021.9 in NW 24.1 mph 24.1 mph 77 % 0.0 in 14.0 W/m2 BKN
08:10 9.1 °F 5.2 °F 1021.9 in WNW 20.4 mph 20.4 mph 77 % 0.0 in 18.0 W/m2 BKN
08:15 9.1 °F 5.2 °F 1021.9 in WNW 24.1 mph 24.1 mph 77 % 0.0 in 39.0 W/m2 BKN
08:20 9.2 °F 5.3 °F 1022.2 in WNW 14.8 mph 14.8 mph 77 % 0.0 in 72.0 W/m2 FEW
08:25 9.3 °F 5.3 °F 1022.2 in West 18.5 mph 18.5 mph 76 % 0.0 in 90.0 W/m2 CLR
08:30 9.5 °F 5.3 °F 1022.2 in WNW 18.5 mph 18.5 mph 75 % 0.0 in 88.0 W/m2 CLR
08:35 9.7 °F 5.4 °F 1022.2 in WNW 20.4 mph 20.4 mph 75 % 0.0 in 95.0 W/m2 CLR
08:36 9.7 °F 5.5 °F 1022.2 in West 24.1 mph 24.1 mph 75 % 0.0 in 95.0 W/m2 CLR
08:41 9.7 °F 5.3 °F 1022.2 in WNW 20.4 mph 20.4 mph 74 % 0.0 in 69.0 W/m2 CLR
08:46 9.7 °F 5.3 °F 1022.2 in WNW 24.1 mph 24.1 mph 74 % 0.0 in 51.0 W/m2 FEW
08:51 9.6 °F 5.2 °F 1022.2 in WNW 29.6 mph 29.6 mph 74 % 0.0 in 63.0 W/m2 SCT
08:56 9.6 °F 5.2 °F 1022.2 in WNW 24.1 mph 24.1 mph 74 % 0.0 in 76.0 W/m2 SCT
09:01 9.6 °F 5.2 °F 1022.2 in NW 24.1 mph 24.1 mph 74 % 0.0 in 70.0 W/m2 FEW
09:06 9.7 °F 5.1 °F 1022.2 in NW 22.2 mph 22.2 mph 73 % 0.0 in 62.0 W/m2 FEW
09:11 9.7 °F 5.3 °F 1022.2 in NW 25.9 mph 25.9 mph 74 % 0.0 in 67.0 W/m2 SCT
09:16 9.7 °F 5.3 °F 1022.2 in WNW 24.1 mph 24.1 mph 74 % 0.0 in 69.0 W/m2 FEW
09:21 9.7 °F 5.3 °F 1022.6 in WNW 20.4 mph 20.4 mph 74 % 0.0 in 70.0 W/m2 FEW
09:26 9.6 °F 5.2 °F 1022.6 in WNW 20.4 mph 20.4 mph 74 % 0.0 in 60.0 W/m2 FEW
09:31 9.6 °F 5.0 °F 1022.6 in WNW 24.1 mph 24.1 mph 73 % 0.0 in 51.0 W/m2 SCT
09:36 9.6 °F 5.2 °F 1022.6 in WNW 20.4 mph 20.4 mph 74 % 0.0 in 42.0 W/m2 SCT
09:41 9.6 °F 5.2 °F 1022.6 in WNW 18.5 mph 18.5 mph 74 % 0.0 in 40.0 W/m2 BKN
09:46 9.6 °F 5.2 °F 1022.2 in West 16.7 mph 16.7 mph 74 % 0.0 in 51.0 W/m2 BKN
09:51 9.6 °F 5.2 °F 1022.2 in West 18.5 mph 18.5 mph 74 % 0.0 in 44.0 W/m2 SCT
09:56 9.6 °F 5.2 °F 1022.2 in WSW 16.7 mph 16.7 mph 74 % 0.0 in 33.0 W/m2 BKN
10:01 9.6 °F 5.2 °F 1022.2 in West 13.0 mph 13.0 mph 74 % 0.0 in 33.0 W/m2 BKN
10:06 9.6 °F 5.2 °F 1022.2 in West 18.5 mph 18.5 mph 74 % 0.0 in 33.0 W/m2 BKN
10:11 9.6 °F 5.4 °F 1022.2 in West 13.0 mph 13.0 mph 75 % 0.0 in 40.0 W/m2 BKN
10:16 9.6 °F 5.4 °F 1022.2 in West 20.9 mph 20.9 mph 75 % 0.0 in 70.0 W/m2 BKN
10:21 9.6 °F 5.4 °F 1022.2 in West 22.2 mph 22.2 mph 75 % 0.0 in 104.0 W/m2 FEW
10:26 9.7 °F 5.5 °F 1022.2 in West 20.4 mph 20.4 mph 75 % 0.0 in 179.0 W/m2 CLR
10:31 9.8 °F 5.6 °F 1022.2 in West 24.1 mph 24.1 mph 75 % 0.0 in 181.0 W/m2 CLR
10:36 10.0 °F 5.8 °F 1022.2 in West 22.2 mph 22.2 mph 75 % 0.0 in 151.0 W/m2 CLR
10:41 10.0 °F 5.8 °F 1022.2 in West 24.1 mph 24.1 mph 75 % 0.0 in 169.0 W/m2 CLR
10:46 10.1 °F 5.6 °F 1022.2 in West 20.4 mph 20.4 mph 74 % 0.0 in 199.0 W/m2 CLR
10:51 10.1 °F 5.7 °F 1022.6 in West 22.2 mph 22.2 mph 74 % 0.0 in 142.0 W/m2 CLR
10:56 10.1 °F 5.7 °F 1022.6 in WNW 20.4 mph 20.4 mph 74 % 0.0 in 111.0 W/m2 CLR
11:01 10.1 °F 5.7 °F 1022.6 in WNW 25.9 mph 25.9 mph 74 % 0.0 in 104.0 W/m2 CLR
11:06 10.1 °F 5.7 °F 1022.6 in West 22.2 mph 22.2 mph 74 % 0.0 in 102.0 W/m2 CLR
11:11 10.1 °F 5.9 °F 1022.6 in WNW 17.7 mph 17.7 mph 75 % 0.0 in 151.0 W/m2 CLR
11:16 10.2 °F 5.7 °F 1022.6 in WNW 22.2 mph 22.2 mph 74 % 0.0 in 237.0 W/m2 CLR
11:21 10.4 °F 6.2 °F 1022.6 in WNW 18.5 mph 18.5 mph 75 % 0.0 in 220.0 W/m2 CLR
11:26 10.4 °F 6.2 °F 1022.6 in NW 22.5 mph 22.5 mph 75 % 0.0 in 165.0 W/m2 CLR
11:31 10.4 °F 6.2 °F 1022.6 in WNW 18.5 mph 18.5 mph 75 % 0.0 in 151.0 W/m2 CLR
11:36 10.4 °F 6.2 °F 1022.6 in NNW 22.2 mph 22.2 mph 75 % 0.0 in 167.0 W/m2 CLR
11:41 10.4 °F 6.3 °F 1022.6 in NW 19.3 mph 19.3 mph 76 % 0.0 in 185.0 W/m2 CLR
11:46 10.3 °F 6.3 °F 1022.9 in NW 27.8 mph 27.8 mph 76 % 0.0 in 220.0 W/m2 CLR
11:51 10.3 °F 6.7 °F 1022.9 in NNW 24.1 mph 24.1 mph 78 % 0.0 in 232.0 W/m2 CLR
11:56 10.2 °F 6.7 °F 1022.9 in NW 24.1 mph 24.1 mph 79 % 0.0 in 295.0 W/m2 CLR
12:01 10.2 °F 6.9 °F 1022.9 in WNW 25.9 mph 25.9 mph 80 % 0.0 in 338.0 W/m2 CLR
12:06 10.2 °F 6.9 °F 1022.9 in NW 22.2 mph 22.2 mph 80 % 0.0 in 367.0 W/m2 CLR
12:11 10.3 °F 7.1 °F 1022.9 in WNW 24.1 mph 24.1 mph 80 % 0.0 in 390.0 W/m2 CLR
12:16 10.5 °F 7.4 °F 1022.9 in NW 20.9 mph 20.9 mph 81 % 0.0 in 554.0 W/m2 CLR
12:21 10.7 °F 7.4 °F 1022.9 in NW 25.9 mph 25.9 mph 80 % 0.0 in 438.0 W/m2 CLR
12:26 10.6 °F 7.3 °F 1022.9 in NW 20.4 mph 20.4 mph 80 % 0.0 in 373.0 W/m2 CLR
12:31 10.8 °F 7.4 °F 1022.9 in NW 20.4 mph 20.4 mph 80 % 0.0 in 339.0 W/m2 CLR
12:36 10.8 °F 7.3 °F 1022.9 in NW 20.9 mph 20.9 mph 79 % 0.0 in 336.0 W/m2 CLR
12:41 10.8 °F 7.3 °F 1022.9 in NW 22.2 mph 22.2 mph 79 % 0.0 in 260.0 W/m2 CLR
12:46 10.9 °F 7.4 °F 1022.9 in WNW 18.5 mph 18.5 mph 79 % 0.0 in 257.0 W/m2 CLR
12:51 11.1 °F 7.4 °F 1022.9 in NW 22.2 mph 22.2 mph 78 % 0.0 in 239.0 W/m2 CLR
12:56 11.0 °F 7.3 °F 1022.9 in WNW 14.8 mph 14.8 mph 78 % 0.0 in 287.0 W/m2 CLR
13:01 11.3 °F 7.8 °F 1022.9 in WNW 16.7 mph 16.7 mph 79 % 0.0 in 438.0 W/m2 CLR
13:06 11.7 °F 7.8 °F 1022.6 in NNW 18.5 mph 18.5 mph 77 % 0.0 in 438.0 W/m2 CLR
13:11 12.1 °F 8.0 °F 1022.6 in NW 18.5 mph 18.5 mph 76 % 0.0 in 647.0 W/m2 CLR
13:12 12.1 °F 8.0 °F 1022.6 in NW 16.7 mph 16.7 mph 76 % 0.0 in 647.0 W/m2 CLR
13:17 12.5 °F 8.2 °F 1022.6 in NNW 18.5 mph 18.5 mph 75 % 0.0 in 921.0 W/m2 CLR
13:22 12.5 °F 7.8 °F 1022.6 in NW 18.5 mph 18.5 mph 73 % 0.0 in 367.0 W/m2 CLR
13:27 12.2 °F 7.3 °F 1022.6 in NNW 22.2 mph 22.2 mph 72 % 0.0 in 339.0 W/m2 CLR
13:32 12.3 °F 7.6 °F 1022.6 in NNW 16.7 mph 16.7 mph 73 % 0.0 in 587.0 W/m2 CLR
13:37 12.4 °F 7.7 °F 1022.2 in NW 18.5 mph 18.5 mph 73 % 0.0 in 568.0 W/m2 CLR
13:42 12.7 °F 8.0 °F 1022.2 in NW 17.7 mph 17.7 mph 73 % 0.0 in 610.0 W/m2 CLR
13:47 12.9 °F 7.8 °F 1022.2 in NW 18.5 mph 18.5 mph 71 % 0.0 in 615.0 W/m2 CLR
13:52 12.9 °F 7.8 °F 1022.2 in NW 13.0 mph 13.0 mph 71 % 0.0 in 531.0 W/m2 CLR
13:57 13.2 °F 7.8 °F 1021.9 in NW 14.8 mph 14.8 mph 70 % 0.0 in 617.0 W/m2 CLR
14:02 13.3 °F 7.9 °F 1021.9 in WNW 9.7 mph 9.7 mph 70 % 0.0 in 392.0 W/m2 CLR
14:07 13.2 °F 7.6 °F 1021.9 in NW 12.9 mph 12.9 mph 69 % 0.0 in 390.0 W/m2 CLR
14:12 13.2 °F 7.4 °F 1021.9 in WNW 5.6 mph 5.6 mph 68 % 0.0 in 276.0 W/m2 CLR
14:17 13.1 °F 7.6 °F 1021.9 in NW 13.0 mph 13.0 mph 69 % 0.0 in 290.0 W/m2 CLR
14:22 13.2 °F 7.7 °F 1021.9 in West 5.6 mph 5.6 mph 69 % 0.0 in 309.0 W/m2 CLR
14:27 13.2 °F 7.6 °F 1021.9 in NNW 5.6 mph 5.6 mph 69 % 0.0 in 218.0 W/m2 CLR
14:32 13.2 °F 7.8 °F 1021.9 in NW 5.6 mph 5.6 mph 70 % 0.0 in 155.0 W/m2 CLR
14:37 13.1 °F 7.6 °F 1021.9 in NW 14.8 mph 14.8 mph 69 % 0.0 in 139.0 W/m2 CLR
14:42 13.1 °F 7.5 °F 1021.9 in NW 13.0 mph 13.0 mph 69 % 0.0 in 160.0 W/m2 CLR
14:47 13.1 °F 7.8 °F 1021.9 in NW 13.0 mph 13.0 mph 70 % 0.0 in 132.0 W/m2 CLR
14:52 13.2 °F 7.6 °F 1021.6 in NNW 5.6 mph 5.6 mph 69 % 0.0 in 123.0 W/m2 CLR
14:57 13.2 °F 7.7 °F 1021.6 in NW 11.1 mph 11.7 mph 69 % 0.0 in 163.0 W/m2 CLR
15:02 13.2 °F 7.6 °F 1021.6 in NW 16.1 mph 16.1 mph 69 % 0.0 in 181.0 W/m2 CLR
15:07 13.1 °F 7.6 °F 1021.6 in NNW 13.0 mph 13.0 mph 69 % 0.0 in 178.0 W/m2 CLR
15:12 13.2 °F 7.7 °F 1021.6 in NNW 3.7 mph 3.7 mph 69 % 0.0 in 220.0 W/m2 CLR
15:17 13.3 °F 7.7 °F 1021.6 in North 5.6 mph   69 % 0.0 in 207.0 W/m2 CLR
15:22 13.4 °F 7.6 °F 1021.6 in NW 13.0 mph 13.0 mph 68 % 0.0 in 350.0 W/m2 CLR
15:27 13.6 °F 8.0 °F 1021.2 in NNW 3.7 mph 3.7 mph 69 % 0.0 in 306.0 W/m2 CLR
15:32 13.8 °F 7.8 °F 1021.2 in NNW 14.8 mph 14.8 mph 67 % 0.0 in 267.0 W/m2 CLR
15:37 13.9 °F 7.8 °F 1021.2 in West 11.1 mph 11.1 mph 67 % 0.0 in 260.0 W/m2 CLR
15:42 14.1 °F 8.0 °F 1021.2 in SW 9.3 mph 9.3 mph 67 % 0.0 in 397.0 W/m2 CLR
15:47 14.1 °F 8.1 °F 1021.2 in West 6.4 mph 6.4 mph 67 % 0.0 in 320.0 W/m2 CLR
15:52 14.2 °F 7.9 °F 1021.2 in West 1.9 mph   66 % 0.0 in 313.0 W/m2 CLR
15:57 14.3 °F 8.0 °F 1020.9 in NW 7.4 mph 7.4 mph 66 % 0.0 in 306.0 W/m2 CLR
16:02 14.4 °F 7.9 °F 1020.9 in Calm     65 % 0.0 in 424.0 W/m2 CLR
16:07 14.6 °F 8.3 °F 1020.9 in NNW 16.1 mph 16.1 mph 66 % 0.0 in 399.0 W/m2 CLR
16:12 14.7 °F 8.0 °F 1020.9 in NW 4.8 mph 4.8 mph 64 % 0.0 in 378.0 W/m2 CLR
16:17 14.8 °F 7.8 °F 1020.5 in WNW 13.0 mph 13.0 mph 63 % 0.0 in 436.0 W/m2 CLR
16:22 14.9 °F 7.9 °F 1020.5 in Calm     63 % 0.0 in 406.0 W/m2 CLR
16:27 15.2 °F 8.0 °F 1020.5 in West 1.9 mph 1.9 mph 62 % 0.0 in 378.0 W/m2 CLR
16:32 15.3 °F 8.3 °F 1020.5 in West 3.2 mph 3.2 mph 63 % 0.0 in 262.0 W/m2 CLR
16:38 15.2 °F 8.0 °F 1020.2 in NW 7.4 mph 7.4 mph 62 % 0.0 in 267.0 W/m2 CLR
16:43 15.6 °F 8.1 °F 1020.2 in West 5.6 mph 5.6 mph 61 % 0.0 in 795.0 W/m2 CLR
16:48 15.9 °F 8.4 °F 1020.2 in West 5.6 mph 5.6 mph 61 % 0.0 in 729.0 W/m2 CLR
16:53 15.9 °F 7.9 °F 1019.9 in West 5.6 mph   59 % 0.0 in 427.0 W/m2 CLR
16:58 16.1 °F 8.1 °F 1019.9 in NNW 20.9 mph 20.9 mph 59 % 0.0 in 506.0 W/m2 CLR
17:03 16.2 °F 8.2 °F 1019.9 in West 11.1 mph   59 % 0.0 in 582.0 W/m2 CLR
17:08 16.5 °F 8.2 °F 1019.9 in West 7.4 mph 7.4 mph 58 % 0.0 in 570.0 W/m2 CLR
17:13 16.6 °F 8.3 °F 1019.9 in WNW 20.4 mph 20.4 mph 58 % 0.0 in 555.0 W/m2 CLR
17:18 16.5 °F 8.2 °F 1019.9 in WNW 14.8 mph 14.8 mph 58 % 0.0 in 540.0 W/m2 CLR
17:23 16.7 °F 7.6 °F 1019.5 in WSW 18.5 mph 18.5 mph 55 % 0.0 in 520.0 W/m2 CLR
17:28 16.7 °F 7.9 °F 1019.5 in NW 18.5 mph 18.5 mph 56 % 0.0 in 510.0 W/m2 CLR
17:33 16.8 °F 7.7 °F 1019.5 in NW 18.5 mph   55 % 0.0 in 489.0 W/m2 CLR
17:38 17.0 °F 8.2 °F 1019.5 in NW 16.7 mph 16.7 mph 56 % 0.0 in 476.0 W/m2 CLR
17:43 17.0 °F 7.6 °F 1019.5 in NW 20.4 mph 20.4 mph 54 % 0.0 in 461.0 W/m2 CLR
17:48 17.0 °F 7.6 °F 1019.5 in NNW 16.7 mph 16.7 mph 54 % 0.0 in 450.0 W/m2 CLR
17:53 17.2 °F 7.8 °F 1019.5 in West 9.3 mph 9.3 mph 54 % 0.0 in 439.0 W/m2 CLR
17:58 17.1 °F 7.7 °F 1019.5 in West 16.7 mph 16.7 mph 54 % 0.0 in 424.0 W/m2 CLR
18:03 17.2 °F 8.1 °F 1019.2 in WNW 18.5 mph 18.5 mph 55 % 0.0 in 410.0 W/m2 CLR
18:08 17.2 °F 8.1 °F 1019.2 in NW 12.9 mph 12.9 mph 55 % 0.0 in 390.0 W/m2 CLR
18:13 17.4 °F 7.7 °F 1019.2 in NW 18.5 mph 18.5 mph 53 % 0.0 in 374.0 W/m2 CLR
18:18 17.4 °F 8.0 °F 1019.2 in WNW 20.9 mph 20.9 mph 54 % 0.0 in 357.0 W/m2 CLR
18:23 17.4 °F 7.7 °F 1019.2 in NW 13.0 mph 13.0 mph 53 % 0.0 in 345.0 W/m2 CLR
18:28 17.6 °F 7.6 °F 1019.2 in WNW 18.5 mph 18.5 mph 52 % 0.0 in 327.0 W/m2 CLR
18:33 17.5 °F 7.6 °F 1019.2 in WNW 18.5 mph 18.5 mph 52 % 0.0 in 313.0 W/m2 CLR
18:38 17.5 °F 7.6 °F 1019.2 in WNW 12.9 mph 12.9 mph 52 % 0.0 in 292.0 W/m2 CLR
18:43 17.5 °F 7.8 °F 1019.2 in NW 3.7 mph 3.7 mph 53 % 0.0 in 278.0 W/m2 CLR
18:48 17.6 °F 7.6 °F 1018.8 in WNW 18.5 mph 18.5 mph 52 % 0.0 in 264.0 W/m2 CLR
18:53 17.7 °F 7.1 °F 1018.8 in NW 9.7 mph 9.7 mph 50 % 0.0 in 246.0 W/m2 CLR
18:58 17.6 °F 7.1 °F 1018.8 in West 14.8 mph 14.8 mph 50 % 0.0 in 225.0 W/m2 CLR
19:03 17.7 °F 7.1 °F 1018.8 in WNW 14.8 mph 14.8 mph 50 % 0.0 in 204.0 W/m2 CLR
19:08 17.6 °F 7.3 °F 1018.8 in WNW 14.8 mph 14.8 mph 51 % 0.0 in 186.0 W/m2 CLR
19:13 17.7 °F 7.1 °F 1018.8 in WNW 14.5 mph 14.5 mph 50 % 0.0 in 84.0 W/m2 CLR
19:18 17.5 °F 6.3 °F 1018.8 in WNW 5.6 mph 5.6 mph 48 % 0.0 in 37.0 W/m2 FEW
19:23 17.3 °F 6.5 °F 1018.8 in NNW 14.5 mph 14.5 mph 49 % 0.0 in 132.0 W/m2 FEW
19:28 17.4 °F 6.6 °F 1019.2 in NW 3.7 mph 3.7 mph 49 % 0.0 in 116.0 W/m2 CLR
19:33 17.5 °F 6.3 °F 1019.2 in NNW 19.3 mph 19.3 mph 48 % 0.0 in 98.0 W/m2 CLR
19:38 17.4 °F 6.3 °F 1019.2 in NNW 27.8 mph 27.8 mph 48 % 0.0 in 83.0 W/m2 FEW
19:43 17.3 °F 6.2 °F 1019.2 in NNW 18.5 mph 18.5 mph 48 % 0.0 in 58.0 W/m2 FEW
19:48 17.2 °F 6.1 °F 1019.2 in NNW 24.1 mph 24.1 mph 48 % 0.0 in 49.0 W/m2 SCT
19:53 17.1 °F 5.9 °F 1019.2 in NW 17.7 mph 17.7 mph 48 % 0.0 in 39.0 W/m2 BKN
19:58 16.9 °F 6.1 °F 1019.2 in NW 18.5 mph 18.5 mph 49 % 0.0 in 30.0 W/m2 BKN
20:04 16.8 °F 6.0 °F 1019.5 in NW 18.5 mph 18.5 mph 49 % 0.0 in 21.0 W/m2 BKN
20:09 16.6 °F 5.8 °F 1019.5 in NW 18.5 mph 18.5 mph 49 % 0.0 in 16.0 W/m2 BKN
20:14 16.4 °F 5.9 °F 1019.5 in NNW 18.5 mph 18.5 mph 50 % 0.0 in 14.0 W/m2 BKN
20:19 16.2 °F 6.1 °F 1019.5 in WNW 18.5 mph 18.5 mph 51 % 0.0 in 12.0 W/m2 BKN
20:24 16.1 °F 5.9 °F 1019.5 in NNW 22.2 mph 22.2 mph 51 % 0.0 in 9.0 W/m2 BKN
20:29 16.0 °F 6.2 °F 1019.9 in NW 27.4 mph 27.4 mph 52 % 0.0 in 5.0 W/m2 OVC
20:34 15.9 °F 6.1 °F 1019.9 in NNW 22.5 mph 22.5 mph 52 % 0.0 in 0.0 W/m2 OVC
20:39 15.8 °F 6.3 °F 1019.9 in WNW 24.1 mph 24.1 mph 53 % 0.0 in 0.0 W/m2 CLR
20:44 15.7 °F 6.2 °F 1019.9 in NNW 27.8 mph 27.8 mph 53 % 0.0 in 0.0 W/m2 CLR
20:49 15.6 °F 6.3 °F 1019.9 in NW 24.1 mph 24.1 mph 54 % 0.0 in 0.0 W/m2 CLR
20:54 15.5 °F 6.2 °F 1019.9 in WNW 18.5 mph 18.5 mph 54 % 0.0 in 0.0 W/m2 CLR
20:59 15.4 °F 6.2 °F 1019.9 in WNW 20.4 mph 20.4 mph 54 % 0.0 in 0.0 W/m2 CLR
21:04 15.3 °F 6.1 °F 1019.9 in NW 27.4 mph 27.4 mph 54 % 0.0 in 0.0 W/m2 CLR
21:09 15.2 °F 5.9 °F 1019.9 in NW 17.7 mph 17.7 mph 54 % 0.0 in 0.0 W/m2 CLR
21:14 15.0 °F 6.0 °F 1020.2 in WNW 27.8 mph 27.8 mph 55 % 0.0 in 0.0 W/m2 CLR
21:19 14.8 °F 6.1 °F 1020.2 in WNW 27.8 mph 27.8 mph 56 % 0.0 in 0.0 W/m2 CLR
21:24 14.7 °F 6.2 °F 1020.5 in NNW 25.9 mph 25.9 mph 57 % 0.0 in 0.0 W/m2 CLR
21:29 14.5 °F 6.3 °F 1020.5 in NW 29.6 mph 29.6 mph 58 % 0.0 in 0.0 W/m2 CLR
21:34 14.4 °F 6.2 °F 1020.5 in WNW 24.1 mph 24.1 mph 58 % 0.0 in 0.0 W/m2 CLR
21:39 14.3 °F 6.4 °F 1020.9 in WNW 16.7 mph 16.7 mph 59 % 0.0 in 0.0 W/m2 CLR
21:44 14.1 °F 6.4 °F 1020.5 in WNW 27.8 mph 27.8 mph 60 % 0.0 in 0.0 W/m2 CLR
21:49 13.9 °F 6.6 °F 1020.5 in NW 22.5 mph 22.5 mph 61 % 0.0 in 0.0 W/m2 CLR
21:54 13.8 °F 6.4 °F 1020.5 in WNW 22.2 mph 22.2 mph 61 % 0.0 in 0.0 W/m2 CLR
21:59 13.7 °F 6.3 °F 1020.9 in WNW 27.8 mph 27.8 mph 61 % 0.0 in 0.0 W/m2 CLR
22:04 13.5 °F 6.3 °F 1020.9 in WNW 29.6 mph 29.6 mph 62 % 0.0 in 0.0 W/m2 CLR
22:09 13.3 °F 6.2 °F 1020.9 in WNW 31.5 mph 31.5 mph 62 % 0.0 in 0.0 W/m2 CLR
22:14 13.2 °F 6.3 °F 1020.9 in WNW 29.6 mph 29.6 mph 63 % 0.0 in 0.0 W/m2 CLR
22:19 13.1 °F 6.2 °F 1020.9 in WNW 27.8 mph 27.8 mph 63 % 0.0 in 0.0 W/m2 CLR
22:24 12.9 °F 6.2 °F 1020.9 in West 27.8 mph 27.8 mph 64 % 0.0 in 0.0 W/m2 CLR
22:29 12.8 °F 6.2 °F 1020.9 in West 20.4 mph 20.4 mph 64 % 0.0 in 0.0 W/m2 CLR
22:34 12.8 °F 6.1 °F 1021.2 in NW 22.2 mph 22.2 mph 64 % 0.0 in 0.0 W/m2 CLR
22:39 12.7 °F 6.3 °F 1021.2 in WNW 18.5 mph 18.5 mph 65 % 0.0 in 0.0 W/m2 CLR
22:44 12.6 °F 6.2 °F 1020.9 in West 27.8 mph 27.8 mph 65 % 0.0 in 0.0 W/m2 CLR
22:49 12.5 °F 6.1 °F 1020.9 in WNW 22.2 mph 22.2 mph 65 % 0.0 in 0.0 W/m2 CLR
22:54 12.4 °F 6.3 °F 1021.2 in NW 20.4 mph 20.4 mph 66 % 0.0 in 0.0 W/m2 CLR
22:59 12.4 °F 6.3 °F 1021.2 in West 14.8 mph 14.8 mph 66 % 0.0 in 0.0 W/m2 CLR
23:04 12.4 °F 6.3 °F 1021.2 in West 31.5 mph 31.5 mph 66 % 0.0 in 0.0 W/m2 CLR
23:09 12.3 °F 6.2 °F 1021.2 in NW 31.5 mph 31.5 mph 66 % 0.0 in 0.0 W/m2 CLR
23:14 12.3 °F 6.3 °F 1021.2 in WNW 18.5 mph 18.5 mph 67 % 0.0 in 0.0 W/m2 CLR
23:19 12.2 °F 6.3 °F 1021.2 in WNW 22.2 mph 22.2 mph 67 % 0.0 in 0.0 W/m2 CLR
23:24 12.2 °F 6.2 °F 1021.6 in West 22.2 mph 22.2 mph 67 % 0.0 in 0.0 W/m2 CLR
23:29 12.2 °F 6.2 °F 1021.6 in West 20.4 mph 20.4 mph 67 % 0.0 in 0.0 W/m2 CLR
23:34 12.1 °F 6.4 °F 1021.6 in WNW 14.8 mph 14.8 mph 68 % 0.0 in 0.0 W/m2 CLR
23:39 12.1 °F 6.3 °F 1021.6 in WSW 22.2 mph 22.2 mph 68 % 0.0 in 0.0 W/m2 CLR
23:44 12.0 °F 6.3 °F 1021.6 in West 25.9 mph 25.9 mph 68 % 0.0 in 0.0 W/m2 CLR
23:49 11.9 °F 6.4 °F 1021.2 in West 20.4 mph 20.4 mph 69 % 0.0 in 0.0 W/m2 CLR
23:54 11.8 °F 6.3 °F 1021.2 in West 22.2 mph 22.2 mph 69 % 0.0 in 0.0 W/m2 CLR
23:59 11.7 °F 6.2 °F 1021.6 in West 19.3 mph 19.3 mph 69 % 0.0 in 0.0 W/m2 CLR
Lo Temps de Massalio
Compliments of Weather Underground - 1.25 mb